Time;durP1;ratioP1;P1;durP2;ratioP2;P2;SDS_P1;SDS_P2;PMS_P1;PMS_P2;Temp;Humidity;BMP_temperature;BMP_pressure;BME280_temperature;BME280_humidity;BME280_pressure;Samples;Min_cycle;Max_cycle;Signal;HPM_P1;HPM_P2
2022/09/22 00:00:16;;;;;;;10.98;4.57;;;;;;;2.59;100.00;96142.06;5045594;28;20041;-75
2022/09/22 00:03:02;;;;;;;9.57;4.63;;;;;;;2.54;100.00;96139.28;5044252;28;20053;-73
2022/09/22 00:05:27;;;;;;;13.55;5.10;;;;;;;2.46;100.00;96142.09;5039388;28;20052;-73
2022/09/22 00:07:53;;;;;;;11.82;5.13;;;;;;;2.49;100.00;96139.06;5036372;28;20071;-73
2022/09/22 00:10:20;;;;;;;13.15;5.78;;;;;;;2.36;100.00;96136.50;5040265;28;20045;-73
2022/09/22 00:12:48;;;;;;;10.38;4.88;;;;;;;2.42;100.00;96143.47;5044570;28;20047;-73
2022/09/22 00:15:14;;;;;;;9.90;4.80;;;;;;;2.35;100.00;96145.28;5044633;28;20526;-75
2022/09/22 00:17:40;;;;;;;10.52;4.30;;;;;;;2.34;100.00;96148.88;5052505;28;20052;-75
2022/09/22 00:20:05;;;;;;;11.30;4.85;;;;;;;2.48;100.00;96144.47;5045149;28;20128;-75
2022/09/22 00:22:32;;;;;;;14.82;4.97;;;;;;;2.21;100.00;96134.09;5036657;28;20415;-75
2022/09/22 00:24:58;;;;;;;9.15;4.20;;;;;;;2.23;100.00;96145.91;5049663;28;20450;-75
2022/09/22 00:27:24;;;;;;;11.85;4.20;;;;;;;2.08;100.00;96140.09;5049526;28;20051;-75
2022/09/22 00:29:50;;;;;;;17.48;5.65;;;;;;;2.22;100.00;96131.31;5047659;28;20037;-75
2022/09/22 00:32:17;;;;;;;17.73;5.50;;;;;;;2.24;100.00;96134.50;5043839;28;20108;-75
2022/09/22 00:34:43;;;;;;;14.85;4.75;;;;;;;2.27;100.00;96133.31;5051563;28;20041;-75
2022/09/22 00:37:09;;;;;;;8.05;4.43;;;;;;;2.19;100.00;96126.50;5046197;28;20052;-75
2022/09/22 00:39:35;;;;;;;22.30;5.32;;;;;;;2.17;100.00;96133.72;5041027;28;20138;-75
2022/09/22 00:42:01;;;;;;;15.55;5.15;;;;;;;2.06;100.00;96131.72;5039925;28;20079;-75
2022/09/22 00:44:34;;;;;;;12.75;5.15;;;;;;;2.00;100.00;96116.94;5046502;28;20419;-75
2022/09/22 00:47:18;;;;;;;8.70;4.40;;;;;;;1.98;100.00;96124.13;5050061;28;20097;-74
2022/09/22 00:49:47;;;;;;;11.52;4.35;;;;;;;2.01;100.00;96114.16;5049936;28;20714;-75
2022/09/22 00:52:18;;;;;;;10.70;4.22;;;;;;;2.06;100.00;96119.53;5048261;28;20037;-75
2022/09/22 00:54:44;;;;;;;8.50;4.55;;;;;;;1.98;100.00;96114.53;5048479;28;20052;-74
2022/09/22 00:57:15;;;;;;;11.13;4.45;;;;;;;1.92;100.00;96104.16;5051008;28;20487;-75
2022/09/22 00:59:43;;;;;;;9.27;4.18;;;;;;;1.80;100.00;96104.75;5041720;28;20491;-74
2022/09/22 01:02:09;;;;;;;17.73;5.30;;;;;;;1.86;100.00;96105.75;5046151;28;20095;-74
2022/09/22 01:04:35;;;;;;;13.40;4.72;;;;;;;1.77;100.00;96097.38;5046936;28;20045;-74
2022/09/22 01:07:01;;;;;;;9.80;4.22;;;;;;;1.77;100.00;96102.56;5048032;28;20060;-75
2022/09/22 01:09:31;;;;;;;13.25;5.32;;;;;;;1.71;100.00;96101.56;5047440;28;20049;-75
2022/09/22 01:11:59;;;;;;;12.73;4.97;;;;;;;1.70;100.00;96096.56;5045246;28;20041;-74
2022/09/22 01:14:36;;;;;;;11.68;4.60;;;;;;;1.67;100.00;96096.97;5048192;28;20053;-75
2022/09/22 01:17:25;;;;;;;8.65;4.43;;;;;;;1.69;100.00;96100.16;5042566;28;20037;-75
2022/09/22 01:20:04;;;;;;;10.48;4.22;;;;;;;1.61;100.00;96093.38;5030842;28;20064;-75
2022/09/22 01:22:54;;;;;;;8.38;4.25;;;;;;;1.56;100.00;96085.38;5044817;28;20054;-75
2022/09/22 01:25:57;;;;;;;7.30;3.90;;;;;;;1.63;100.00;96090.56;5036558;28;20037;-75
2022/09/22 01:28:53;;;;;;;8.50;4.00;;;;;;;1.68;100.00;96083.78;5036123;28;20041;-75
2022/09/22 01:31:32;;;;;;;8.82;3.88;;;;;;;1.54;100.00;96077.78;5049995;28;20563;-74
2022/09/22 01:34:13;;;;;;;9.45;3.92;;;;;;;1.54;100.00;96077.00;5036578;28;20470;-74
2022/09/22 01:36:57;;;;;;;9.68;4.00;;;;;;;1.59;100.00;96079.00;5053024;28;20044;-74
2022/09/22 01:39:30;;;;;;;9.35;3.78;;;;;;;1.49;100.00;96069.78;5039249;28;20411;-74
2022/09/22 01:42:06;;;;;;;8.70;4.13;;;;;;;1.45;100.00;96068.59;5050706;28;20072;-74
2022/09/22 01:44:37;;;;;;;7.93;3.90;;;;;;;1.42;100.00;96074.16;5036115;28;20038;-75
2022/09/22 01:47:09;;;;;;;8.45;4.22;;;;;;;1.44;100.00;96069.59;5050733;28;20033;-74
2022/09/22 01:49:41;;;;;;;6.43;3.63;;;;;;;1.44;100.00;96066.19;5036666;28;20045;-75
2022/09/22 01:52:15;;;;;;;8.52;3.90;;;;;;;1.42;100.00;96063.78;5037177;28;20065;-74
2022/09/22 01:54:44;;;;;;;7.13;3.53;;;;;;;1.51;100.00;96067.81;5043537;28;20045;-75
2022/09/22 01:57:25;;;;;;;6.60;3.40;;;;;;;1.47;100.00;96066.59;5050189;28;20037;-74
2022/09/22 01:59:55;;;;;;;8.02;3.60;;;;;;;1.37;100.00;96058.41;5036970;28;20499;-75
2022/09/22 02:02:41;;;;;;;8.93;3.38;;;;;;;1.28;100.00;96067.34;5047139;28;20060;-75
2022/09/22 02:05:19;;;;;;;8.15;3.92;;;;;;;1.19;100.00;96075.34;5034417;28;20045;-75
2022/09/22 02:07:49;;;;;;;6.20;3.38;;;;;;;1.26;100.00;96074.53;5035689;28;20095;-74
2022/09/22 02:10:19;;;;;;;7.22;3.45;;;;;;;1.24;100.00;96076.53;5045633;28;20094;-74
2022/09/22 02:12:45;;;;;;;6.18;3.50;;;;;;;1.25;100.00;96078.13;5044606;28;20103;-74
2022/09/22 02:18:02;;;;;;;5.05;3.05;;;;;;;1.07;100.00;96076.88;5034597;28;20033;-74
2022/09/22 02:20:27;;;;;;;7.68;3.47;;;;;;;1.02;100.00;96081.84;5037702;28;20064;-74
2022/09/22 02:22:53;;;;;;;5.80;3.70;;;;;;;1.11;100.00;96078.09;5047793;28;20491;-74
2022/09/22 02:25:22;;;;;;;9.73;3.88;;;;;;;0.99;100.00;96080.47;5043482;28;20089;-74
2022/09/22 02:27:49;;;;;;;8.57;3.53;;;;;;;1.12;100.00;96079.72;5041326;28;20039;-74
2022/09/22 02:30:15;;;;;;;5.70;3.47;;;;;;;1.05;100.00;96073.72;5038167;28;20056;-75
2022/09/22 02:32:45;;;;;;;8.13;3.70;;;;;;;0.92;100.00;96078.81;5043507;28;20041;-74
2022/09/22 02:35:11;;;;;;;7.22;3.65;;;;;;;0.99;100.00;96082.25;5037668;28;20042;-75
2022/09/22 02:37:44;;;;;;;6.97;3.50;;;;;;;1.03;100.00;96092.03;5044366;28;20396;-75
2022/09/22 02:40:24;;;;;;;5.43;2.95;;;;;;;0.95;100.00;96083.63;5033504;28;20033;-74
2022/09/22 02:43:02;;;;;;;5.50;3.13;;;;;;;0.98;100.00;96085.84;5046715;28;20048;-74
2022/09/22 02:45:54;;;;;;;5.78;3.28;;;;;;;0.83;100.00;96089.38;5040100;28;20041;-75
2022/09/22 02:48:26;;;;;;;5.63;3.20;;;;;;;0.85;100.00;96084.78;5003540;28;20073;-74
2022/09/22 02:50:53;;;;;;;7.28;3.08;;;;;;;0.89;100.00;96084.41;5046637;28;20048;-75
2022/09/22 02:53:19;;;;;;;7.22;3.28;;;;;;;0.88;100.00;96085.38;5048041;28;20049;-74
2022/09/22 02:55:45;;;;;;;5.68;3.35;;;;;;;0.73;100.00;96094.09;5042823;28;20052;-74
2022/09/22 02:58:14;;;;;;;11.77;4.20;;;;;;;0.80;100.00;96092.34;5045184;28;20044;-74
2022/09/22 03:00:39;;;;;;;9.65;4.05;;;;;;;0.75;100.00;96094.72;5041604;28;20056;-74
2022/09/22 03:03:06;;;;;;;8.48;3.67;;;;;;;0.65;100.00;96094.28;5044506;28;20041;-75
2022/09/22 03:05:31;;;;;;;6.55;2.97;;;;;;;0.70;100.00;96089.31;5044465;28;20044;-75
2022/09/22 03:07:57;;;;;;;7.75;3.83;;;;;;;0.55;100.00;96089.44;5046391;28;20041;-75
2022/09/22 03:10:23;;;;;;;7.88;3.67;;;;;;;0.46;100.00;96093.97;5037931;28;20044;-74
2022/09/22 03:12:49;;;;;;;5.78;3.47;;;;;;;0.57;100.00;96086.66;5031060;28;20045;-75
2022/09/22 03:15:14;;;;;;;6.57;3.33;;;;;;;0.54;100.00;96087.03;5038588;28;20049;-75
2022/09/22 03:17:40;;;;;;;7.95;3.30;;;;;;;0.50;100.00;96081.44;5048217;28;20049;-75
2022/09/22 03:20:10;;;;;;;8.40;3.17;;;;;;;0.43;100.00;96081.41;5031239;28;20041;-74
2022/09/22 03:22:37;;;;;;;6.15;3.08;;;;;;;0.48;100.00;96084.22;5031951;28;20049;-74
2022/09/22 03:25:03;;;;;;;5.60;3.35;;;;;;;0.49;100.00;96085.03;5041431;28;20065;-75
2022/09/22 03:27:29;;;;;;;6.25;3.05;;;;;;;0.51;100.00;96086.41;5042258;28;20061;-75
2022/09/22 03:29:54;;;;;;;6.30;3.05;;;;;;;0.54;100.00;96082.66;5039932;28;20064;-75
2022/09/22 03:32:21;;;;;;;6.25;3.70;;;;;;;0.58;100.00;96088.25;5048297;28;20049;-75
2022/09/22 03:34:47;;;;;;;6.72;3.25;;;;;;;0.51;100.00;96083.81;5044963;28;20052;-75
2022/09/22 03:37:14;;;;;;;5.55;3.10;;;;;;;0.51;100.00;96089.00;5035117;28;20037;-75
2022/09/22 03:39:39;;;;;;;5.05;3.00;;;;;;;0.50;100.00;96087.44;5035040;28;20045;-75
2022/09/22 03:42:05;;;;;;;6.72;3.28;;;;;;;0.61;100.00;96087.88;5047943;28;20041;-75
2022/09/22 03:44:30;;;;;;;7.53;3.20;;;;;;;0.55;100.00;96083.44;5036330;28;20054;-75
2022/09/22 03:46:56;;;;;;;8.20;3.40;;;;;;;0.50;100.00;96077.06;5047753;28;20061;-75
2022/09/22 03:49:21;;;;;;;5.72;2.92;;;;;;;0.45;100.00;96069.06;5050359;28;20111;-75
2022/09/22 03:51:47;;;;;;;6.15;3.30;;;;;;;0.47;100.00;96069.66;5048804;28;20048;-75
2022/09/22 03:54:12;;;;;;;5.72;3.38;;;;;;;0.46;100.00;96075.84;5047002;28;20041;-75
2022/09/22 03:56:38;;;;;;;8.65;2.78;;;;;;;0.48;100.00;96079.03;5035008;28;20520;-75
2022/09/22 03:59:04;;;;;;;5.20;3.08;;;;;;;0.48;100.00;96073.84;5035667;28;20047;-75
2022/09/22 04:01:30;;;;;;;7.10;3.33;;;;;;;0.52;100.00;96075.06;5048533;28;20074;-76
2022/09/22 04:03:55;;;;;;;4.90;2.70;;;;;;;0.40;100.00;96075.81;5034719;28;20125;-75
2022/09/22 04:06:21;;;;;;;4.68;2.80;;;;;;;0.37;100.00;96071.81;5041737;28;20556;-75
2022/09/22 04:08:47;;;;;;;5.53;2.83;;;;;;;0.39;100.00;96081.97;5045516;28;20041;-75
2022/09/22 04:11:12;;;;;;;7.22;2.90;;;;;;;0.36;100.00;96075.41;5043776;28;20064;-74
2022/09/22 04:13:38;;;;;;;6.00;3.20;;;;;;;0.37;100.00;96071.81;5037986;28;20696;-74
2022/09/22 04:16:04;;;;;;;8.82;3.40;;;;;;;0.30;100.00;96065.78;5047549;28;20475;-74
2022/09/22 04:18:30;;;;;;;6.57;3.35;;;;;;;0.31;100.00;96063.00;5039755;28;20064;-74
2022/09/22 04:20:57;;;;;;;5.43;3.20;;;;;;;0.36;100.00;96065.03;5048533;28;20045;-74
2022/09/22 04:23:24;;;;;;;5.70;3.10;;;;;;;0.32;100.00;96063.81;5038890;28;20037;-74
2022/09/22 04:25:49;;;;;;;5.35;2.70;;;;;;;0.40;100.00;96071.41;5045781;28;20041;-75
2022/09/22 04:28:15;;;;;;;12.52;3.13;;;;;;;0.39;100.00;96059.47;5045765;28;20048;-75
2022/09/22 04:30:42;;;;;;;5.85;3.08;;;;;;;0.29;100.00;96061.63;5037551;28;20040;-75
2022/09/22 04:33:09;;;;;;;6.85;3.00;;;;;;;0.23;100.00;96062.34;5044407;28;20033;-76
2022/09/22 04:35:35;;;;;;;6.03;3.17;;;;;;;0.37;100.00;96066.63;5048070;28;20040;-74
2022/09/22 04:38:01;;;;;;;5.85;3.17;;;;;;;0.28;100.00;96071.16;5045114;28;20631;-75
2022/09/22 04:40:27;;;;;;;5.57;2.90;;;;;;;0.35;100.00;96076.38;5041246;28;20041;-74
2022/09/22 04:42:53;;;;;;;6.75;3.47;;;;;;;0.30;100.00;96073.56;5039334;28;20034;-75
2022/09/22 04:45:18;;;;;;;5.00;2.97;;;;;;;0.27;100.00;96076.53;5051555;28;20052;-75
2022/09/22 04:47:45;;;;;;;7.28;3.58;;;;;;;0.21;100.00;96078.09;5041951;28;20041;-75
2022/09/22 04:50:11;;;;;;;5.75;3.10;;;;;;;0.22;100.00;96076.31;5049895;28;20068;-75
2022/09/22 04:52:37;;;;;;;8.98;3.10;;;;;;;0.30;100.00;96070.97;5048738;28;20041;-74
2022/09/22 04:55:03;;;;;;;4.55;2.72;;;;;;;0.32;100.00;96089.72;5048362;28;20048;-75
2022/09/22 04:57:29;;;;;;;4.82;2.72;;;;;;;0.29;100.00;96090.09;5049668;28;20072;-75
2022/09/22 04:59:55;;;;;;;4.35;2.80;;;;;;;0.25;100.00;96088.88;5042159;28;20682;-75
2022/09/22 05:02:21;;;;;;;6.55;2.58;;;;;;;0.30;100.00;96094.25;5035955;28;20033;-75
2022/09/22 05:04:46;;;;;;;5.03;2.67;;;;;;;0.38;100.00;96106.28;5048872;28;20489;-75
2022/09/22 05:07:11;;;;;;;5.13;2.97;;;;;;;0.39;100.00;96095.72;5049404;28;20116;-74
2022/09/22 05:09:37;;;;;;;4.97;2.78;;;;;;;0.31;100.00;96098.47;5041546;28;20048;-74
2022/09/22 05:12:03;;;;;;;5.28;2.90;;;;;;;0.23;100.00;96107.19;5049541;28;20041;-74
2022/09/22 05:14:30;;;;;;;10.55;2.78;;;;;;;0.23;100.00;96101.19;5042462;28;20053;-74
2022/09/22 05:16:56;;;;;;;5.85;3.08;;;;;;;0.19;100.00;96103.38;5049779;28;20041;-74
2022/09/22 05:19:21;;;;;;;5.95;3.25;;;;;;;0.23;100.00;96108.97;5041375;28;20040;-74
2022/09/22 05:21:47;;;;;;;4.78;2.92;;;;;;;0.36;100.00;96106.47;5040934;28;20108;-74
2022/09/22 05:24:12;;;;;;;9.90;3.38;;;;;;;0.29;100.00;96101.25;5041966;28;20028;-74
2022/09/22 05:26:38;;;;;;;9.05;3.55;;;;;;;0.25;100.00;96109.59;5048192;28;20041;-74
2022/09/22 05:29:05;;;;;;;6.82;3.30;;;;;;;0.25;100.00;96109.59;5049725;28;20041;-74
2022/09/22 05:31:31;;;;;;;6.55;3.42;;;;;;;0.31;100.00;96106.22;5048517;28;20055;-74
2022/09/22 05:33:57;;;;;;;11.55;3.75;;;;;;;0.26;100.00;96105.97;5047453;28;20064;-74
2022/09/22 05:36:23;;;;;;;6.88;2.95;;;;;;;0.22;100.00;96109.97;5048519;28;20048;-74
2022/09/22 05:38:48;;;;;;;7.85;3.50;;;;;;;0.32;100.00;96113.00;5046867;28;20049;-74
2022/09/22 05:41:14;;;;;;;10.13;3.50;;;;;;;0.28;100.00;96109.19;5037857;28;20038;-74
2022/09/22 05:43:40;;;;;;;6.53;3.33;;;;;;;0.33;100.00;96119.78;5047549;28;20469;-74
2022/09/22 05:46:05;;;;;;;6.50;3.42;;;;;;;0.28;100.00;96114.38;5048973;28;20037;-74
2022/09/22 05:48:31;;;;;;;8.90;3.30;;;;;;;0.40;100.00;96125.78;5036967;28;20060;-74
2022/09/22 05:50:56;;;;;;;6.88;3.15;;;;;;;0.44;100.00;96124.44;5042244;28;20034;-75
2022/09/22 05:53:22;;;;;;;6.55;3.40;;;;;;;0.45;100.00;96131.22;5038125;28;20033;-75
2022/09/22 05:55:47;;;;;;;7.68;3.35;;;;;;;0.50;100.00;96118.50;5045786;28;20048;-75
2022/09/22 05:58:12;;;;;;;6.97;3.25;;;;;;;0.56;100.00;96116.13;5044518;28;20400;-74
2022/09/22 06:00:39;;;;;;;7.10;3.85;;;;;;;0.73;100.00;96116.63;5041587;28;20043;-79
2022/09/22 06:03:05;;;;;;;7.97;3.97;;;;;;;0.74;100.00;96123.41;5043450;28;20040;-76
2022/09/22 06:05:30;;;;;;;10.00;3.70;;;;;;;0.88;100.00;96124.25;5047506;28;20044;-76
2022/09/22 06:07:59;;;;;;;8.15;3.30;;;;;;;0.98;100.00;96119.53;5045207;28;20033;-76
2022/09/22 06:10:26;;;;;;;8.43;3.80;;;;;;;1.02;100.00;96115.53;5040461;28;20041;-77
2022/09/22 06:12:57;;;;;;;7.38;3.35;;;;;;;1.07;100.00;96110.59;5046448;28;20041;-75
2022/09/22 06:15:22;;;;;;;6.60;3.35;;;;;;;1.20;100.00;96118.41;5042120;28;20056;-75
2022/09/22 06:17:51;;;;;;;8.52;3.67;;;;;;;1.16;100.00;96112.00;5050200;28;20041;-76
2022/09/22 06:20:16;;;;;;;12.50;4.15;;;;;;;1.27;100.00;96122.81;5044151;28;20033;-74
2022/09/22 06:22:43;;;;;;;10.63;4.00;;;;;;;1.24;100.00;96118.81;5045794;28;20049;-76
2022/09/22 06:25:10;;;;;;;9.55;4.30;;;;;;;1.31;100.00;96116.25;5041824;28;20050;-75
2022/09/22 06:27:35;;;;;;;8.40;4.25;;;;;;;1.36;100.00;96116.44;5052690;28;20037;-75
2022/09/22 06:30:02;;;;;;;7.20;3.92;;;;;;;1.51;100.00;96109.31;5045142;28;20063;-79
2022/09/22 06:32:27;;;;;;;11.45;4.85;;;;;;;1.53;100.00;96122.88;5049674;28;20062;-75
2022/09/22 06:34:52;;;;;;;9.05;4.43;;;;;;;1.61;100.00;96118.50;5046876;28;20052;-77
2022/09/22 06:37:19;;;;;;;8.38;4.82;;;;;;;1.74;100.00;96121.13;5048462;28;20533;-75
2022/09/22 06:39:45;;;;;;;14.55;5.55;;;;;;;1.87;100.00;96118.53;5041580;28;20041;-76
2022/09/22 06:42:11;;;;;;;9.95;5.45;;;;;;;1.86;100.00;96121.31;5050004;28;20124;-76
2022/09/22 06:44:37;;;;;;;14.00;5.97;;;;;;;1.97;100.00;96112.13;5045339;28;20512;-76
2022/09/22 06:47:04;;;;;;;16.60;6.45;;;;;;;2.06;100.00;96116.16;5046030;28;20116;-76
2022/09/22 06:49:29;;;;;;;13.82;6.38;;;;;;;2.08;100.00;96114.13;5048905;28;20403;-77
2022/09/22 06:51:55;;;;;;;16.15;7.25;;;;;;;2.68;100.00;96102.88;5048125;28;20090;-77
2022/09/22 06:54:20;;;;;;;13.90;8.00;;;;;;;2.83;100.00;96098.22;5044731;28;20063;-78
2022/09/22 06:56:46;;;;;;;13.52;7.70;;;;;;;3.16;100.00;96093.88;5037368;28;20042;-77
2022/09/22 06:59:13;;;;;;;16.48;7.80;;;;;;;3.29;100.00;96094.63;5043350;28;20106;-77
2022/09/22 07:01:40;;;;;;;14.43;8.00;;;;;;;3.70;100.00;96089.94;5033523;28;20076;-77
2022/09/22 07:04:06;;;;;;;14.38;7.47;;;;;;;3.91;100.00;96088.03;5038877;28;20148;-77
2022/09/22 07:06:31;;;;;;;12.70;7.53;;;;;;;4.02;100.00;96091.72;5050076;28;20037;-77
2022/09/22 07:08:57;;;;;;;14.85;7.55;;;;;;;4.14;100.00;96090.03;5041287;28;20045;-77
2022/09/22 07:11:22;;;;;;;16.48;7.65;;;;;;;4.30;100.00;96089.47;5049633;28;20041;-79
2022/09/22 07:13:53;;;;;;;20.08;8.02;;;;;;;4.47;100.00;96088.91;5045070;28;20048;-77
2022/09/22 07:16:20;;;;;;;16.45;8.23;;;;;;;4.46;100.00;96092.53;5050002;28;20128;-77
2022/09/22 07:18:52;;;;;;;23.23;7.68;;;;;;;4.79;100.00;96086.16;5047512;28;20513;-77
2022/09/22 07:21:42;;;;;;;21.05;9.38;;;;;;;4.61;100.00;96082.56;5039550;28;20045;-77
2022/09/22 07:24:07;;;;;;;20.30;9.63;;;;;;;4.50;100.00;96088.47;5039843;28;20147;-76
2022/09/22 07:26:36;;;;;;;19.10;8.93;;;;;;;4.53;100.00;96093.25;5035333;28;20134;-76
2022/09/22 07:29:04;;;;;;;16.42;8.30;;;;;;;4.87;100.00;96080.66;5041311;28;20045;-78
2022/09/22 07:31:33;;;;;;;18.08;7.90;;;;;;;4.92;100.00;96085.22;5040617;28;20446;-77
2022/09/22 07:33:59;;;;;;;19.08;8.43;;;;;;;4.79;100.00;96091.38;5040722;28;20055;-76
2022/09/22 07:36:27;;;;;;;17.85;8.48;;;;;;;4.80;100.00;96090.38;5039359;28;20065;-75
2022/09/22 07:38:56;;;;;;;14.93;7.40;;;;;;;4.93;100.00;96087.59;5040778;28;20045;-76
2022/09/22 07:41:26;;;;;;;13.07;6.03;;;;;;;5.22;100.00;96085.25;5048999;28;20095;-75
2022/09/22 07:43:55;;;;;;;12.90;6.03;;;;;;;5.13;100.00;96087.38;5044645;28;20495;-75
2022/09/22 07:46:21;;;;;;;11.85;5.22;;;;;;;5.10;100.00;96081.78;5039342;28;20101;-76
2022/09/22 07:48:46;;;;;;;12.05;4.82;;;;;;;5.16;100.00;96086.13;5040491;28;20037;-78
2022/09/22 07:51:21;;;;;;;10.07;4.70;;;;;;;5.29;100.00;96080.75;5044568;28;20037;-77
2022/09/22 07:54:08;;;;;;;12.93;4.38;;;;;;;5.21;100.00;96088.88;5037895;28;20422;-77
2022/09/22 07:56:36;;;;;;;6.93;4.00;;;;;;;5.65;100.00;96080.84;5048747;28;20049;-80
2022/09/22 07:59:03;;;;;;;9.65;4.15;;;;;;;5.53;100.00;96091.25;5037348;28;20171;-77
2022/09/22 08:01:33;;;;;;;7.40;4.15;;;;;;;5.51;100.00;96082.84;5038781;28;20131;-77
2022/09/22 08:03:59;;;;;;;6.38;3.67;;;;;;;5.82;100.00;96075.75;5040321;28;20050;-75
2022/09/22 08:06:26;;;;;;;7.10;3.10;;;;;;;5.87;100.00;96086.34;5046710;28;20049;-75
2022/09/22 08:08:55;;;;;;;5.15;3.35;;;;;;;6.28;100.00;96082.09;5039868;28;20410;-76
2022/09/22 08:11:23;;;;;;;6.30;3.28;;;;;;;6.68;100.00;96080.56;5047219;28;20075;-77
2022/09/22 08:13:52;;;;;;;5.22;2.72;;;;;;;7.26;100.00;96076.22;5054013;28;20515;-75
2022/09/22 08:16:21;;;;;;;5.03;2.60;;;;;;;7.26;100.00;96070.97;5048666;28;20041;-75
2022/09/22 08:18:55;;;;;;;4.57;2.55;;;;;;;7.38;100.00;96078.78;5050861;28;20495;-76
2022/09/22 08:21:34;;;;;;;8.05;2.90;;;;;;;7.45;100.00;96079.44;5038382;28;20041;-76
2022/09/22 08:24:03;;;;;;;4.00;2.50;;;;;;;7.74;100.00;96077.59;5044307;28;20072;-75
2022/09/22 08:26:29;;;;;;;5.97;2.38;;;;;;;7.42;100.00;96078.06;5043666;28;20041;-76
2022/09/22 08:28:55;;;;;;;8.70;2.95;;;;;;;7.44;100.00;96083.88;5050309;28;20099;-74
2022/09/22 08:31:23;;;;;;;5.50;2.83;;;;;;;7.45;100.00;96085.44;5044497;28;20450;-75
2022/09/22 08:33:52;;;;;;;4.93;2.60;;;;;;;7.58;100.00;96084.38;5040816;28;20068;-75
2022/09/22 08:36:18;;;;;;;6.88;3.13;;;;;;;7.75;100.00;96079.16;5040026;28;20675;-73
2022/09/22 08:38:48;;;;;;;5.32;2.38;;;;;;;7.85;100.00;96072.50;5042869;28;20107;-76
2022/09/22 08:41:37;;;;;;;6.43;2.45;;;;;;;8.49;100.00;96067.72;5042330;28;20037;-75
2022/09/22 08:44:09;;;;;;;5.25;2.80;;;;;;;8.58;100.00;96075.16;5046588;28;20048;-81
2022/09/22 08:46:43;;;;;;;3.92;2.60;;;;;;;8.51;100.00;96077.19;5046119;28;20041;-75
2022/09/22 08:52:26;;;;;;;4.75;2.60;;;;;;;8.86;100.00;96076.03;5052968;28;20258;-78
2022/09/22 08:54:58;;;;;;;5.25;2.80;;;;;;;8.53;100.00;96067.22;5071833;28;20084;-77
2022/09/22 08:57:46;;;;;;;5.05;2.80;;;;;;;8.62;100.00;96071.00;5074620;28;20123;-76
2022/09/22 09:00:14;;;;;;;4.95;2.50;;;;;;;9.13;100.00;96065.59;5072174;28;20025;-75
2022/09/22 09:03:09;;;;;;;5.40;2.50;;;;;;;9.65;100.00;96072.13;5074429;28;20032;-75
2022/09/22 09:05:44;;;;;;;4.97;2.40;;;;;;;9.14;100.00;96067.97;5034583;28;20060;-75
2022/09/22 09:08:27;;;;;;;6.65;2.30;;;;;;;9.37;100.00;96066.09;5078314;28;20029;-76
2022/09/22 09:10:54;;;;;;;4.47;2.35;;;;;;;9.26;100.00;96067.03;5069984;28;20073;-75
2022/09/22 09:13:33;;;;;;;5.05;2.05;;;;;;;9.69;100.00;96073.22;5067900;28;20046;-74
2022/09/22 09:16:21;;;;;;;3.53;1.98;;;;;;;9.96;100.00;96067.16;5080136;28;20040;-76
2022/09/22 09:18:56;;;;;;;3.45;1.95;;;;;;;10.08;100.00;96064.34;5045978;28;20061;-75
2022/09/22 09:21:24;;;;;;;5.30;2.28;;;;;;;9.84;100.00;96070.75;5039823;28;20430;-76
2022/09/22 09:23:53;;;;;;;3.55;1.90;;;;;;;10.38;100.00;96055.88;5049623;28;20044;-75
2022/09/22 09:26:19;;;;;;;2.83;1.80;;;;;;;10.56;100.00;96055.47;5045784;28;20048;-76
2022/09/22 09:28:56;;;;;;;3.17;1.70;;;;;;;10.74;100.00;96056.06;5047090;28;20056;-77
2022/09/22 09:31:42;;;;;;;3.67;2.28;;;;;;;10.40;100.00;96056.41;5048116;28;20041;-76
2022/09/22 09:34:14;;;;;;;2.88;1.90;;;;;;;10.32;100.00;96049.00;5041961;28;20082;-76
2022/09/22 09:36:44;;;;;;;3.70;2.00;;;;;;;10.71;100.00;96053.97;5050898;28;20115;-77
2022/09/22 09:39:13;;;;;;;9.45;2.00;;;;;;;10.92;100.00;96058.25;5041754;28;20048;-77
2022/09/22 09:41:40;;;;;;;2.75;1.80;;;;;;;10.75;100.00;96057.66;5037859;28;20041;-76
2022/09/22 09:44:11;;;;;;;2.83;1.88;;;;;;;10.74;100.00;96053.44;5039784;28;20415;-76
2022/09/22 09:46:48;;;;;;;3.10;1.92;;;;;;;11.02;100.00;96056.69;5042270;28;20064;-76
2022/09/22 09:49:16;;;;;;;2.95;1.88;;;;;;;11.16;100.00;96047.28;5045106;28;20502;-77
2022/09/22 09:51:45;;;;;;;4.65;2.10;;;;;;;11.34;100.00;96045.22;5040121;28;20050;-76
2022/09/22 09:54:17;;;;;;;2.97;1.90;;;;;;;11.39;100.00;96032.84;5043024;28;20033;-76
2022/09/22 09:57:05;;;;;;;4.30;1.88;;;;;;;11.87;100.00;96039.75;5043521;28;20048;-77
2022/09/22 10:02:20;;;;;;;3.10;1.80;;;;;;;12.86;94.16;96039.28;5047128;28;20107;-76
2022/09/22 10:04:55;;;;;;;2.15;1.80;;;;;;;13.59;93.63;96029.94;5045848;28;20761;-76
2022/09/22 10:07:26;;;;;;;3.25;1.85;;;;;;;14.31;86.02;96024.03;5045489;28;20454;-76
2022/09/22 10:09:52;;;;;;;5.97;1.90;;;;;;;14.70;79.36;96031.06;5037788;28;20037;-76
2022/09/22 10:12:23;;;;;;;3.95;1.70;;;;;;;14.99;74.58;96032.84;5042952;28;20037;-76
2022/09/22 10:14:54;;;;;;;1.58;1.38;;;;;;;15.10;72.41;96027.41;5044320;28;20041;-76
2022/09/22 10:17:37;;;;;;;2.13;1.52;;;;;;;14.31;74.31;96024.03;5030346;28;20045;-77
2022/09/22 10:20:23;;;;;;;2.67;1.50;;;;;;;15.69;69.43;96020.72;5039684;28;20446;-76
2022/09/22 10:22:49;;;;;;;3.08;1.60;;;;;;;16.28;69.70;96017.66;5039542;28;20102;-77
2022/09/22 10:25:31;;;;;;;3.50;1.60;;;;;;;15.90;65.30;96023.09;5042302;28;22132;-76
2022/09/22 10:28:15;;;;;;;3.00;1.63;;;;;;;15.07;69.15;96012.88;5042524;28;20040;-76
2022/09/22 10:30:42;;;;;;;2.50;1.65;;;;;;;14.98;68.74;96018.00;5040535;28;20047;-75
2022/09/22 10:33:19;;;;;;;3.88;1.90;;;;;;;15.07;68.34;96013.66;5048595;28;20033;-76
2022/09/22 10:36:03;;;;;;;2.30;1.67;;;;;;;16.00;66.63;96011.50;5042315;28;20124;-76
2022/09/22 10:38:32;;;;;;;3.10;1.60;;;;;;;16.17;59.25;96003.00;5048216;28;20688;-76
2022/09/22 10:41:13;;;;;;;2.85;1.70;;;;;;;15.96;60.83;96016.63;5036877;28;20549;-75
2022/09/22 10:43:47;;;;;;;2.85;1.67;;;;;;;16.47;58.88;96008.84;5036613;28;20050;-77
2022/09/22 10:46:45;;;;;;;2.38;1.60;;;;;;;17.04;59.45;96009.31;5039519;28;20288;-77
2022/09/22 10:49:30;;;;;;;3.88;1.70;;;;;;;17.04;60.57;96011.97;5038034;28;20053;-78
2022/09/22 10:52:34;;;;;;;4.05;1.90;;;;;;;16.23;60.15;96012.44;5028536;28;20044;-78
2022/09/22 10:55:24;;;;;;;4.93;1.50;;;;;;;17.15;58.66;96012.53;5018385;28;20057;-78
2022/09/22 10:58:02;;;;;;;1.77;1.50;;;;;;;18.33;54.42;96009.00;5055780;28;20047;-79
2022/09/22 11:00:33;;;;;;;2.40;1.60;;;;;;;17.97;51.76;96009.91;5038041;28;20120;-79
2022/09/22 11:03:09;;;;;;;1.70;1.42;;;;;;;18.39;52.76;95999.78;5036548;28;20033;-79
2022/09/22 11:12:25;;;;;;;2.70;1.50;;;;;;;18.56;48.96;95995.59;5043707;28;20041;-81
2022/09/22 11:15:18;;;;;;;1.85;1.65;;;;;;;18.61;47.68;95998.16;5043345;28;20156;-76
2022/09/22 11:17:46;;;;;;;2.42;1.50;;;;;;;18.35;49.30;95993.50;5042551;28;20108;-77
2022/09/22 11:20:31;;;;;;;1.50;1.40;;;;;;;19.00;51.41;95991.19;5037913;28;20041;-74
2022/09/22 11:23:15;;;;;;;2.45;1.60;;;;;;;19.72;46.52;95989.00;5046885;28;20097;-75
2022/09/22 11:25:47;;;;;;;3.05;1.67;;;;;;;18.57;48.51;95989.97;5042423;28;20052;-74
2022/09/22 11:28:50;;;;;;;2.28;1.70;;;;;;;18.90;46.05;95994.16;5032423;28;20087;-76
2022/09/22 11:31:36;;;;;;;1.85;1.52;;;;;;;18.87;45.62;95977.69;5040550;28;20041;-76
2022/09/22 11:34:19;;;;;;;3.95;1.60;;;;;;;18.97;48.05;95986.50;5043643;28;20045;-76
2022/09/22 11:36:54;;;;;;;1.45;1.35;;;;;;;18.02;49.69;95985.03;5038677;28;20045;-76
2022/09/22 11:39:25;;;;;;;1.90;1.50;;;;;;;19.43;47.14;95977.09;5033455;28;20061;-76
2022/09/22 11:42:06;;;;;;;1.55;1.45;;;;;;;19.85;44.98;95972.03;5044689;28;20045;-75
2022/09/22 11:44:35;;;;;;;1.77;1.50;;;;;;;19.87;45.82;95964.50;5033648;28;20046;-75
2022/09/22 11:47:36;;;;;;;4.07;1.60;;;;;;;19.96;46.75;95971.72;5045725;28;20565;-76
2022/09/22 11:50:29;;;;;;;2.97;1.48;;;;;;;18.79;47.08;95965.09;5044787;28;20071;-75
2022/09/22 11:53:10;;;;;;;1.73;1.45;;;;;;;18.70;47.17;95961.63;5043502;28;20042;-76
2022/09/22 11:55:51;;;;;;;3.53;1.65;;;;;;;19.36;46.23;95960.78;5035051;28;20046;-77
2022/09/22 11:58:22;;;;;;;4.93;1.63;;;;;;;19.55;46.90;95955.91;5042283;28;20047;-76
2022/09/22 12:01:00;;;;;;;2.03;1.60;;;;;;;19.96;46.72;95967.16;5044667;28;20033;-77
2022/09/22 12:03:32;;;;;;;5.10;1.75;;;;;;;20.57;42.07;95958.91;5039760;28;20041;-77